sensor_id;sensor_type;location;lat;lon;timestamp;temperature;humidity
23540;DHT22;11947;50.810;4.394;2023-01-23T00:01:25;2.60;99.90
23540;DHT22;11947;50.810;4.394;2023-01-23T00:03:52;2.50;99.90
23540;DHT22;11947;50.810;4.394;2023-01-23T00:06:18;2.50;99.90
23540;DHT22;11947;50.810;4.394;2023-01-23T00:08:45;2.60;99.90
23540;DHT22;11947;50.810;4.394;2023-01-23T00:11:13;2.60;99.90
23540;DHT22;11947;50.810;4.394;2023-01-23T00:13:39;2.60;99.90
23540;DHT22;11947;50.810;4.394;2023-01-23T00:16:07;2.60;99.90
23540;DHT22;11947;50.810;4.394;2023-01-23T00:18:33;2.50;99.90
23540;DHT22;11947;50.810;4.394;2023-01-23T00:21:06;2.50;99.90
23540;DHT22;11947;50.810;4.394;2023-01-23T00:23:33;2.50;99.90
23540;DHT22;11947;50.810;4.394;2023-01-23T00:26:07;2.40;99.90
23540;DHT22;11947;50.810;4.394;2023-01-23T00:28:33;2.50;99.90
23540;DHT22;11947;50.810;4.394;2023-01-23T00:31:10;2.40;99.90
23540;DHT22;11947;50.810;4.394;2023-01-23T00:33:37;2.50;99.90
23540;DHT22;11947;50.810;4.394;2023-01-23T00:36:03;2.50;99.90
23540;DHT22;11947;50.810;4.394;2023-01-23T00:38:29;2.50;99.90
23540;DHT22;11947;50.810;4.394;2023-01-23T00:40:55;2.50;99.90
23540;DHT22;11947;50.810;4.394;2023-01-23T00:43:22;2.50;99.90
23540;DHT22;11947;50.810;4.394;2023-01-23T00:45:48;2.50;99.90
23540;DHT22;11947;50.810;4.394;2023-01-23T00:48:14;2.50;99.90
23540;DHT22;11947;50.810;4.394;2023-01-23T00:50:40;2.40;99.90
23540;DHT22;11947;50.810;4.394;2023-01-23T00:53:05;2.40;99.90
23540;DHT22;11947;50.810;4.394;2023-01-23T00:55:31;2.60;99.90
23540;DHT22;11947;50.810;4.394;2023-01-23T00:57:57;2.50;99.90
23540;DHT22;11947;50.810;4.394;2023-01-23T01:00:23;2.60;99.90
23540;DHT22;11947;50.810;4.394;2023-01-23T01:02:48;2.70;99.90
23540;DHT22;11947;50.810;4.394;2023-01-23T01:05:14;2.70;99.90
23540;DHT22;11947;50.810;4.394;2023-01-23T01:07:43;2.80;99.90
23540;DHT22;11947;50.810;4.394;2023-01-23T01:10:10;2.90;99.90
23540;DHT22;11947;50.810;4.394;2023-01-23T01:12:36;2.70;99.90
23540;DHT22;11947;50.810;4.394;2023-01-23T01:15:02;2.70;99.90
23540;DHT22;11947;50.810;4.394;2023-01-23T01:17:28;2.70;99.90
23540;DHT22;11947;50.810;4.394;2023-01-23T01:19:54;2.60;99.90
23540;DHT22;11947;50.810;4.394;2023-01-23T01:22:19;2.50;99.90
23540;DHT22;11947;50.810;4.394;2023-01-23T01:24:45;2.60;99.90
23540;DHT22;11947;50.810;4.394;2023-01-23T01:27:11;2.40;99.90
23540;DHT22;11947;50.810;4.394;2023-01-23T01:29:36;2.50;99.90
23540;DHT22;11947;50.810;4.394;2023-01-23T01:32:02;2.60;99.90
23540;DHT22;11947;50.810;4.394;2023-01-23T01:34:28;2.60;99.90
23540;DHT22;11947;50.810;4.394;2023-01-23T01:36:54;2.60;99.90
23540;DHT22;11947;50.810;4.394;2023-01-23T01:39:19;2.60;99.90
23540;DHT22;11947;50.810;4.394;2023-01-23T01:41:45;2.50;99.90
23540;DHT22;11947;50.810;4.394;2023-01-23T01:44:18;2.40;99.90
23540;DHT22;11947;50.810;4.394;2023-01-23T01:46:44;2.50;99.90
23540;DHT22;11947;50.810;4.394;2023-01-23T01:49:12;2.50;99.90
23540;DHT22;11947;50.810;4.394;2023-01-23T01:51:40;2.30;99.90
23540;DHT22;11947;50.810;4.394;2023-01-23T01:56:48;2.30;99.90
23540;DHT22;11947;50.810;4.394;2023-01-23T01:59:17;2.30;99.90
23540;DHT22;11947;50.810;4.394;2023-01-23T02:01:46;2.20;99.90
23540;DHT22;11947;50.810;4.394;2023-01-23T02:04:13;2.10;99.90
23540;DHT22;11947;50.810;4.394;2023-01-23T02:06:40;2.20;99.90
23540;DHT22;11947;50.810;4.394;2023-01-23T02:09:32;2.20;99.90
23540;DHT22;11947;50.810;4.394;2023-01-23T02:11:59;2.20;99.90
23540;DHT22;11947;50.810;4.394;2023-01-23T02:14:25;2.20;99.90
23540;DHT22;11947;50.810;4.394;2023-01-23T02:16:51;2.20;99.90
23540;DHT22;11947;50.810;4.394;2023-01-23T02:22:40;2.20;99.90
23540;DHT22;11947;50.810;4.394;2023-01-23T02:27:38;2.10;99.90
23540;DHT22;11947;50.810;4.394;2023-01-23T02:30:04;2.10;99.90
23540;DHT22;11947;50.810;4.394;2023-01-23T02:32:32;2.20;99.90
23540;DHT22;11947;50.810;4.394;2023-01-23T02:35:00;2.10;99.90
23540;DHT22;11947;50.810;4.394;2023-01-23T02:37:30;2.20;99.90
23540;DHT22;11947;50.810;4.394;2023-01-23T02:39:58;2.20;99.90
23540;DHT22;11947;50.810;4.394;2023-01-23T02:42:26;2.20;99.90
23540;DHT22;11947;50.810;4.394;2023-01-23T02:44:51;2.10;99.90
23540;DHT22;11947;50.810;4.394;2023-01-23T02:47:20;2.10;99.90
23540;DHT22;11947;50.810;4.394;2023-01-23T02:49:45;2.30;99.90
23540;DHT22;11947;50.810;4.394;2023-01-23T02:52:12;2.30;99.90
23540;DHT22;11947;50.810;4.394;2023-01-23T02:54:37;2.30;99.90
23540;DHT22;11947;50.810;4.394;2023-01-23T02:57:05;2.20;99.90
23540;DHT22;11947;50.810;4.394;2023-01-23T02:59:30;2.20;99.90
23540;DHT22;11947;50.810;4.394;2023-01-23T03:02:14;2.20;99.90
23540;DHT22;11947;50.810;4.394;2023-01-23T03:04:40;2.20;99.90
23540;DHT22;11947;50.810;4.394;2023-01-23T03:07:06;2.20;99.90
23540;DHT22;11947;50.810;4.394;2023-01-23T03:09:32;2.30;99.90
23540;DHT22;11947;50.810;4.394;2023-01-23T03:11:58;2.40;99.90
23540;DHT22;11947;50.810;4.394;2023-01-23T03:14:24;2.40;99.90
23540;DHT22;11947;50.810;4.394;2023-01-23T03:16:50;2.30;99.90
23540;DHT22;11947;50.810;4.394;2023-01-23T03:19:19;2.50;99.90
23540;DHT22;11947;50.810;4.394;2023-01-23T03:21:45;2.40;99.90
23540;DHT22;11947;50.810;4.394;2023-01-23T03:24:12;2.30;99.90
23540;DHT22;11947;50.810;4.394;2023-01-23T03:26:43;2.30;99.90
23540;DHT22;11947;50.810;4.394;2023-01-23T03:29:20;2.50;99.90
23540;DHT22;11947;50.810;4.394;2023-01-23T03:32:04;2.50;99.90
23540;DHT22;11947;50.810;4.394;2023-01-23T03:34:30;2.50;99.90
23540;DHT22;11947;50.810;4.394;2023-01-23T03:36:57;2.40;99.90
23540;DHT22;11947;50.810;4.394;2023-01-23T03:39:23;2.40;99.90
23540;DHT22;11947;50.810;4.394;2023-01-23T03:42:07;2.50;99.90
23540;DHT22;11947;50.810;4.394;2023-01-23T03:44:33;2.40;99.90
23540;DHT22;11947;50.810;4.394;2023-01-23T03:46:59;2.40;99.90
23540;DHT22;11947;50.810;4.394;2023-01-23T03:49:24;2.30;99.90
23540;DHT22;11947;50.810;4.394;2023-01-23T03:51:50;2.40;99.90
23540;DHT22;11947;50.810;4.394;2023-01-23T03:54:16;2.30;99.90
23540;DHT22;11947;50.810;4.394;2023-01-23T03:56:41;2.30;99.90
23540;DHT22;11947;50.810;4.394;2023-01-23T03:59:07;2.40;99.90
23540;DHT22;11947;50.810;4.394;2023-01-23T04:01:33;2.40;99.90
23540;DHT22;11947;50.810;4.394;2023-01-23T04:03:59;2.20;99.90
23540;DHT22;11947;50.810;4.394;2023-01-23T04:06:25;2.20;99.90
23540;DHT22;11947;50.810;4.394;2023-01-23T04:08:51;2.30;99.90
23540;DHT22;11947;50.810;4.394;2023-01-23T04:11:17;2.10;99.90
23540;DHT22;11947;50.810;4.394;2023-01-23T04:13:44;2.10;99.90
23540;DHT22;11947;50.810;4.394;2023-01-23T04:16:11;2.10;99.90
23540;DHT22;11947;50.810;4.394;2023-01-23T04:18:37;2.20;99.90
23540;DHT22;11947;50.810;4.394;2023-01-23T04:21:03;2.20;99.90
23540;DHT22;11947;50.810;4.394;2023-01-23T04:23:29;2.40;99.90
23540;DHT22;11947;50.810;4.394;2023-01-23T04:25:55;2.40;99.90
23540;DHT22;11947;50.810;4.394;2023-01-23T04:28:20;2.50;99.90
23540;DHT22;11947;50.810;4.394;2023-01-23T04:30:46;2.60;99.90
23540;DHT22;11947;50.810;4.394;2023-01-23T04:33:12;2.40;99.90
23540;DHT22;11947;50.810;4.394;2023-01-23T04:35:37;2.40;99.90
23540;DHT22;11947;50.810;4.394;2023-01-23T04:38:03;2.50;99.90
23540;DHT22;11947;50.810;4.394;2023-01-23T04:40:28;2.40;99.90
23540;DHT22;11947;50.810;4.394;2023-01-23T04:42:54;2.30;99.90
23540;DHT22;11947;50.810;4.394;2023-01-23T04:45:20;2.40;99.90
23540;DHT22;11947;50.810;4.394;2023-01-23T04:47:45;2.30;99.90
23540;DHT22;11947;50.810;4.394;2023-01-23T04:50:11;2.30;99.90
23540;DHT22;11947;50.810;4.394;2023-01-23T04:52:37;2.20;99.90
23540;DHT22;11947;50.810;4.394;2023-01-23T04:55:03;2.20;99.90
23540;DHT22;11947;50.810;4.394;2023-01-23T04:57:28;2.30;99.90
23540;DHT22;11947;50.810;4.394;2023-01-23T04:59:54;2.20;99.90
23540;DHT22;11947;50.810;4.394;2023-01-23T05:02:20;2.30;99.90
23540;DHT22;11947;50.810;4.394;2023-01-23T05:04:48;2.30;99.90
23540;DHT22;11947;50.810;4.394;2023-01-23T05:07:14;2.40;99.90
23540;DHT22;11947;50.810;4.394;2023-01-23T05:09:40;2.40;99.90
23540;DHT22;11947;50.810;4.394;2023-01-23T05:12:06;2.30;99.90
23540;DHT22;11947;50.810;4.394;2023-01-23T05:14:32;2.30;99.90
23540;DHT22;11947;50.810;4.394;2023-01-23T05:16:57;2.40;99.90
23540;DHT22;11947;50.810;4.394;2023-01-23T05:19:23;2.40;99.90
23540;DHT22;11947;50.810;4.394;2023-01-23T05:21:49;2.60;99.90
23540;DHT22;11947;50.810;4.394;2023-01-23T05:24:14;2.60;99.90
23540;DHT22;11947;50.810;4.394;2023-01-23T05:26:40;2.50;99.90
23540;DHT22;11947;50.810;4.394;2023-01-23T05:29:07;2.40;99.90
23540;DHT22;11947;50.810;4.394;2023-01-23T05:31:32;2.40;99.90
23540;DHT22;11947;50.810;4.394;2023-01-23T05:33:58;2.40;99.90
23540;DHT22;11947;50.810;4.394;2023-01-23T05:36:23;2.40;99.90
23540;DHT22;11947;50.810;4.394;2023-01-23T05:38:49;2.40;99.90
23540;DHT22;11947;50.810;4.394;2023-01-23T05:41:14;2.50;99.90
23540;DHT22;11947;50.810;4.394;2023-01-23T05:43:42;2.50;99.90
23540;DHT22;11947;50.810;4.394;2023-01-23T05:46:07;2.50;99.90
23540;DHT22;11947;50.810;4.394;2023-01-23T05:48:33;2.50;99.90
23540;DHT22;11947;50.810;4.394;2023-01-23T05:51:02;2.70;99.90
23540;DHT22;11947;50.810;4.394;2023-01-23T05:53:28;2.60;99.90
23540;DHT22;11947;50.810;4.394;2023-01-23T05:55:54;2.60;99.90
23540;DHT22;11947;50.810;4.394;2023-01-23T05:58:19;2.60;99.90
23540;DHT22;11947;50.810;4.394;2023-01-23T06:00:45;2.50;99.90
23540;DHT22;11947;50.810;4.394;2023-01-23T06:03:10;2.50;99.90
23540;DHT22;11947;50.810;4.394;2023-01-23T06:05:36;2.50;99.90
23540;DHT22;11947;50.810;4.394;2023-01-23T06:08:02;2.40;99.90
23540;DHT22;11947;50.810;4.394;2023-01-23T06:10:27;2.40;99.90
23540;DHT22;11947;50.810;4.394;2023-01-23T06:12:53;2.30;99.90
23540;DHT22;11947;50.810;4.394;2023-01-23T06:15:19;2.40;99.90
23540;DHT22;11947;50.810;4.394;2023-01-23T06:17:45;2.40;99.90
23540;DHT22;11947;50.810;4.394;2023-01-23T06:20:10;2.70;99.90
23540;DHT22;11947;50.810;4.394;2023-01-23T06:22:37;2.60;99.90
23540;DHT22;11947;50.810;4.394;2023-01-23T06:25:02;2.50;99.90
23540;DHT22;11947;50.810;4.394;2023-01-23T06:27:28;2.60;99.90
23540;DHT22;11947;50.810;4.394;2023-01-23T06:29:54;2.60;99.90
23540;DHT22;11947;50.810;4.394;2023-01-23T06:32:19;2.60;99.90
23540;DHT22;11947;50.810;4.394;2023-01-23T06:34:45;2.40;99.90
23540;DHT22;11947;50.810;4.394;2023-01-23T06:37:11;2.50;99.90
23540;DHT22;11947;50.810;4.394;2023-01-23T06:39:36;2.50;99.90
23540;DHT22;11947;50.810;4.394;2023-01-23T06:42:02;2.50;99.90
23540;DHT22;11947;50.810;4.394;2023-01-23T06:44:30;2.50;99.90
23540;DHT22;11947;50.810;4.394;2023-01-23T06:46:56;2.50;99.90
23540;DHT22;11947;50.810;4.394;2023-01-23T06:49:22;2.70;99.90
23540;DHT22;11947;50.810;4.394;2023-01-23T06:51:47;2.70;99.90
23540;DHT22;11947;50.810;4.394;2023-01-23T06:54:13;2.50;99.90
23540;DHT22;11947;50.810;4.394;2023-01-23T06:56:38;2.50;99.90
23540;DHT22;11947;50.810;4.394;2023-01-23T06:59:05;2.60;99.90
23540;DHT22;11947;50.810;4.394;2023-01-23T07:01:30;2.60;99.90
23540;DHT22;11947;50.810;4.394;2023-01-23T07:03:56;2.60;99.90
23540;DHT22;11947;50.810;4.394;2023-01-23T07:06:21;2.70;99.90
23540;DHT22;11947;50.810;4.394;2023-01-23T07:08:47;2.70;99.90
23540;DHT22;11947;50.810;4.394;2023-01-23T07:11:14;2.60;99.90
23540;DHT22;11947;50.810;4.394;2023-01-23T07:13:40;2.60;99.90
23540;DHT22;11947;50.810;4.394;2023-01-23T07:16:06;2.50;99.90
23540;DHT22;11947;50.810;4.394;2023-01-23T07:18:32;2.60;99.90
23540;DHT22;11947;50.810;4.394;2023-01-23T07:20:58;2.60;99.90
23540;DHT22;11947;50.810;4.394;2023-01-23T07:23:24;2.60;99.90
23540;DHT22;11947;50.810;4.394;2023-01-23T07:25:49;2.70;99.90
23540;DHT22;11947;50.810;4.394;2023-01-23T07:28:15;2.70;99.90
23540;DHT22;11947;50.810;4.394;2023-01-23T07:30:41;2.70;99.90
23540;DHT22;11947;50.810;4.394;2023-01-23T07:33:06;2.60;99.90
23540;DHT22;11947;50.810;4.394;2023-01-23T07:35:32;2.60;99.90
23540;DHT22;11947;50.810;4.394;2023-01-23T07:37:57;2.60;99.90
23540;DHT22;11947;50.810;4.394;2023-01-23T07:40:23;2.70;99.90
23540;DHT22;11947;50.810;4.394;2023-01-23T07:42:49;2.70;99.90
23540;DHT22;11947;50.810;4.394;2023-01-23T07:45:15;2.70;99.90
23540;DHT22;11947;50.810;4.394;2023-01-23T07:47:40;2.60;99.90
23540;DHT22;11947;50.810;4.394;2023-01-23T07:50:12;2.80;99.90
23540;DHT22;11947;50.810;4.394;2023-01-23T07:52:38;2.60;99.90
23540;DHT22;11947;50.810;4.394;2023-01-23T07:55:05;2.60;99.90
23540;DHT22;11947;50.810;4.394;2023-01-23T07:57:30;2.60;99.90
23540;DHT22;11947;50.810;4.394;2023-01-23T07:59:58;2.60;99.90
23540;DHT22;11947;50.810;4.394;2023-01-23T08:02:23;2.60;99.90
23540;DHT22;11947;50.810;4.394;2023-01-23T08:04:49;2.60;99.90
23540;DHT22;11947;50.810;4.394;2023-01-23T08:07:15;2.80;99.90
23540;DHT22;11947;50.810;4.394;2023-01-23T08:09:41;2.80;99.90
23540;DHT22;11947;50.810;4.394;2023-01-23T08:12:06;2.80;99.90
23540;DHT22;11947;50.810;4.394;2023-01-23T08:14:32;2.70;99.90
23540;DHT22;11947;50.810;4.394;2023-01-23T08:16:57;2.90;99.90
23540;DHT22;11947;50.810;4.394;2023-01-23T08:19:23;3.00;99.90
23540;DHT22;11947;50.810;4.394;2023-01-23T08:21:52;2.80;99.90
23540;DHT22;11947;50.810;4.394;2023-01-23T08:24:18;2.80;99.90
23540;DHT22;11947;50.810;4.394;2023-01-23T08:26:44;2.80;99.90
23540;DHT22;11947;50.810;4.394;2023-01-23T08:29:10;2.70;99.90
23540;DHT22;11947;50.810;4.394;2023-01-23T08:31:36;2.80;99.90
23540;DHT22;11947;50.810;4.394;2023-01-23T08:34:02;2.90;99.90
23540;DHT22;11947;50.810;4.394;2023-01-23T08:36:28;2.70;99.90
23540;DHT22;11947;50.810;4.394;2023-01-23T08:38:53;2.60;99.90
23540;DHT22;11947;50.810;4.394;2023-01-23T08:41:20;2.60;99.90
23540;DHT22;11947;50.810;4.394;2023-01-23T08:43:45;2.70;99.90
23540;DHT22;11947;50.810;4.394;2023-01-23T08:46:11;2.60;99.90
23540;DHT22;11947;50.810;4.394;2023-01-23T08:48:37;2.60;99.90
23540;DHT22;11947;50.810;4.394;2023-01-23T08:51:11;2.70;99.90
23540;DHT22;11947;50.810;4.394;2023-01-23T08:53:38;2.80;99.90
23540;DHT22;11947;50.810;4.394;2023-01-23T08:56:06;3.10;99.90
23540;DHT22;11947;50.810;4.394;2023-01-23T08:58:33;3.00;99.90
23540;DHT22;11947;50.810;4.394;2023-01-23T09:00:59;3.00;99.90
23540;DHT22;11947;50.810;4.394;2023-01-23T09:03:25;3.00;99.90
23540;DHT22;11947;50.810;4.394;2023-01-23T09:05:51;3.00;99.90
23540;DHT22;11947;50.810;4.394;2023-01-23T09:08:17;2.90;99.90
23540;DHT22;11947;50.810;4.394;2023-01-23T09:10:43;3.00;99.90
23540;DHT22;11947;50.810;4.394;2023-01-23T09:13:09;3.00;99.90
23540;DHT22;11947;50.810;4.394;2023-01-23T09:15:37;3.20;99.90
23540;DHT22;11947;50.810;4.394;2023-01-23T09:18:03;3.20;99.90
23540;DHT22;11947;50.810;4.394;2023-01-23T09:20:29;3.30;99.90
23540;DHT22;11947;50.810;4.394;2023-01-23T09:22:54;3.40;99.90
23540;DHT22;11947;50.810;4.394;2023-01-23T09:25:20;3.40;99.90
23540;DHT22;11947;50.810;4.394;2023-01-23T09:27:46;3.40;99.90
23540;DHT22;11947;50.810;4.394;2023-01-23T09:30:12;3.40;99.90
23540;DHT22;11947;50.810;4.394;2023-01-23T09:32:38;3.30;99.90
23540;DHT22;11947;50.810;4.394;2023-01-23T09:35:04;3.40;99.90
23540;DHT22;11947;50.810;4.394;2023-01-23T09:37:31;3.50;99.90
23540;DHT22;11947;50.810;4.394;2023-01-23T09:40:18;3.50;99.90
23540;DHT22;11947;50.810;4.394;2023-01-23T09:42:46;3.50;99.90
23540;DHT22;11947;50.810;4.394;2023-01-23T09:45:16;3.50;99.90
23540;DHT22;11947;50.810;4.394;2023-01-23T09:50:32;3.60;99.90
23540;DHT22;11947;50.810;4.394;2023-01-23T09:53:07;3.50;99.90
23540;DHT22;11947;50.810;4.394;2023-01-23T09:58:32;3.50;99.90
23540;DHT22;11947;50.810;4.394;2023-01-23T10:00:59;3.40;99.90
23540;DHT22;11947;50.810;4.394;2023-01-23T10:03:29;3.30;99.90
23540;DHT22;11947;50.810;4.394;2023-01-23T10:06:21;3.40;99.90
23540;DHT22;11947;50.810;4.394;2023-01-23T10:09:21;3.40;99.90
23540;DHT22;11947;50.810;4.394;2023-01-23T10:17:36;3.40;99.90
23540;DHT22;11947;50.810;4.394;2023-01-23T10:25:39;3.60;99.90
23540;DHT22;11947;50.810;4.394;2023-01-23T10:28:37;3.70;99.90
23540;DHT22;11947;50.810;4.394;2023-01-23T10:31:09;3.80;99.90
23540;DHT22;11947;50.810;4.394;2023-01-23T10:33:46;3.90;99.90
23540;DHT22;11947;50.810;4.394;2023-01-23T10:39:19;4.00;99.90
23540;DHT22;11947;50.810;4.394;2023-01-23T10:41:46;4.00;99.90
23540;DHT22;11947;50.810;4.394;2023-01-23T10:44:17;4.10;99.90
23540;DHT22;11947;50.810;4.394;2023-01-23T10:46:53;4.00;99.90
23540;DHT22;11947;50.810;4.394;2023-01-23T10:49:34;3.90;99.90
23540;DHT22;11947;50.810;4.394;2023-01-23T10:52:04;4.00;99.90
23540;DHT22;11947;50.810;4.394;2023-01-23T10:54:30;4.00;99.90
23540;DHT22;11947;50.810;4.394;2023-01-23T10:59:39;4.00;99.90
23540;DHT22;11947;50.810;4.394;2023-01-23T11:04:38;4.20;99.90
23540;DHT22;11947;50.810;4.394;2023-01-23T11:07:15;4.30;99.90
23540;DHT22;11947;50.810;4.394;2023-01-23T11:12:20;4.20;99.90
23540;DHT22;11947;50.810;4.394;2023-01-23T11:14:47;4.20;99.90
23540;DHT22;11947;50.810;4.394;2023-01-23T11:17:20;4.20;99.90
23540;DHT22;11947;50.810;4.394;2023-01-23T11:19:48;4.30;99.90
23540;DHT22;11947;50.810;4.394;2023-01-23T11:24:55;4.30;99.90
23540;DHT22;11947;50.810;4.394;2023-01-23T11:27:27;4.40;99.90
23540;DHT22;11947;50.810;4.394;2023-01-23T11:38:29;4.10;99.90
23540;DHT22;11947;50.810;4.394;2023-01-23T11:41:08;4.30;99.90
23540;DHT22;11947;50.810;4.394;2023-01-23T11:43:34;4.40;99.90
23540;DHT22;11947;50.810;4.394;2023-01-23T11:46:13;4.20;99.90
23540;DHT22;11947;50.810;4.394;2023-01-23T11:48:51;4.10;99.90
23540;DHT22;11947;50.810;4.394;2023-01-23T11:51:35;4.10;99.90
23540;DHT22;11947;50.810;4.394;2023-01-23T11:54:07;4.00;99.90
23540;DHT22;11947;50.810;4.394;2023-01-23T12:02:40;4.30;99.90
23540;DHT22;11947;50.810;4.394;2023-01-23T12:05:32;4.10;99.90
23540;DHT22;11947;50.810;4.394;2023-01-23T12:10:43;4.10;99.90
23540;DHT22;11947;50.810;4.394;2023-01-23T12:16:21;4.20;99.90
23540;DHT22;11947;50.810;4.394;2023-01-23T12:19:14;4.30;99.90
23540;DHT22;11947;50.810;4.394;2023-01-23T12:22:14;4.10;99.90
23540;DHT22;11947;50.810;4.394;2023-01-23T12:27:44;4.00;99.90
23540;DHT22;11947;50.810;4.394;2023-01-23T12:35:32;4.00;99.90
23540;DHT22;11947;50.810;4.394;2023-01-23T12:41:05;4.10;99.90
23540;DHT22;11947;50.810;4.394;2023-01-23T12:43:53;4.20;99.90
23540;DHT22;11947;50.810;4.394;2023-01-23T12:46:53;4.20;99.90
23540;DHT22;11947;50.810;4.394;2023-01-23T12:52:00;4.40;99.90
23540;DHT22;11947;50.810;4.394;2023-01-23T12:54:36;4.40;99.90
23540;DHT22;11947;50.810;4.394;2023-01-23T12:57:03;4.30;99.90
23540;DHT22;11947;50.810;4.394;2023-01-23T13:00:00;4.30;99.90
23540;DHT22;11947;50.810;4.394;2023-01-23T13:02:56;4.40;99.90
23540;DHT22;11947;50.810;4.394;2023-01-23T13:05:31;4.30;99.90
23540;DHT22;11947;50.810;4.394;2023-01-23T13:08:10;4.30;99.90
23540;DHT22;11947;50.810;4.394;2023-01-23T13:11:15;4.30;99.90
23540;DHT22;11947;50.810;4.394;2023-01-23T13:14:01;4.30;99.90
23540;DHT22;11947;50.810;4.394;2023-01-23T13:16:29;4.20;99.90
23540;DHT22;11947;50.810;4.394;2023-01-23T13:18:57;4.20;99.90
23540;DHT22;11947;50.810;4.394;2023-01-23T13:27:49;4.40;99.90
23540;DHT22;11947;50.810;4.394;2023-01-23T13:32:53;4.40;99.90
23540;DHT22;11947;50.810;4.394;2023-01-23T13:49:43;4.50;99.90
23540;DHT22;11947;50.810;4.394;2023-01-23T13:52:50;4.50;99.90
23540;DHT22;11947;50.810;4.394;2023-01-23T13:55:41;4.30;99.90
23540;DHT22;11947;50.810;4.394;2023-01-23T13:58:27;4.30;99.90
23540;DHT22;11947;50.810;4.394;2023-01-23T14:01:03;4.20;99.90
23540;DHT22;11947;50.810;4.394;2023-01-23T14:03:53;4.10;99.90
23540;DHT22;11947;50.810;4.394;2023-01-23T14:06:39;4.10;99.90
23540;DHT22;11947;50.810;4.394;2023-01-23T14:09:21;4.10;99.90
23540;DHT22;11947;50.810;4.394;2023-01-23T14:11:59;4.30;99.90
23540;DHT22;11947;50.810;4.394;2023-01-23T14:14:32;4.20;99.90
23540;DHT22;11947;50.810;4.394;2023-01-23T14:17:16;4.20;99.90
23540;DHT22;11947;50.810;4.394;2023-01-23T14:19:55;4.20;99.90
23540;DHT22;11947;50.810;4.394;2023-01-23T14:22:22;4.20;99.90
23540;DHT22;11947;50.810;4.394;2023-01-23T14:24:50;4.30;99.90
23540;DHT22;11947;50.810;4.394;2023-01-23T14:27:33;4.20;99.90
23540;DHT22;11947;50.810;4.394;2023-01-23T14:32:36;4.00;99.90
23540;DHT22;11947;50.810;4.394;2023-01-23T14:35:15;4.10;99.90
23540;DHT22;11947;50.810;4.394;2023-01-23T14:37:41;4.10;99.90
23540;DHT22;11947;50.810;4.394;2023-01-23T14:40:34;3.90;99.90
23540;DHT22;11947;50.810;4.394;2023-01-23T14:43:29;4.10;99.90
23540;DHT22;11947;50.810;4.394;2023-01-23T14:46:12;4.00;99.90
23540;DHT22;11947;50.810;4.394;2023-01-23T14:52:05;4.00;99.90
23540;DHT22;11947;50.810;4.394;2023-01-23T14:54:45;4.10;99.90
23540;DHT22;11947;50.810;4.394;2023-01-23T14:57:19;4.10;99.90
23540;DHT22;11947;50.810;4.394;2023-01-23T14:59:54;4.10;99.90
23540;DHT22;11947;50.810;4.394;2023-01-23T15:02:31;3.90;99.90
23540;DHT22;11947;50.810;4.394;2023-01-23T15:05:18;3.90;99.90
23540;DHT22;11947;50.810;4.394;2023-01-23T15:11:16;3.80;99.90
23540;DHT22;11947;50.810;4.394;2023-01-23T15:16:34;3.70;99.90
23540;DHT22;11947;50.810;4.394;2023-01-23T15:19:21;3.80;99.90
23540;DHT22;11947;50.810;4.394;2023-01-23T15:21:49;3.70;99.90
23540;DHT22;11947;50.810;4.394;2023-01-23T15:24:19;3.80;99.90
23540;DHT22;11947;50.810;4.394;2023-01-23T15:27:03;3.80;99.90
23540;DHT22;11947;50.810;4.394;2023-01-23T15:29:29;3.60;99.90
23540;DHT22;11947;50.810;4.394;2023-01-23T15:31:56;3.50;99.90
23540;DHT22;11947;50.810;4.394;2023-01-23T15:34:27;3.50;99.90
23540;DHT22;11947;50.810;4.394;2023-01-23T15:37:23;3.60;99.90
23540;DHT22;11947;50.810;4.394;2023-01-23T15:39:53;3.50;99.90
23540;DHT22;11947;50.810;4.394;2023-01-23T15:42:32;3.60;99.90
23540;DHT22;11947;50.810;4.394;2023-01-23T15:44:59;3.50;99.90
23540;DHT22;11947;50.810;4.394;2023-01-23T15:47:34;3.50;99.90
23540;DHT22;11947;50.810;4.394;2023-01-23T15:50:05;3.50;99.90
23540;DHT22;11947;50.810;4.394;2023-01-23T15:52:51;3.50;99.90
23540;DHT22;11947;50.810;4.394;2023-01-23T15:55:23;3.40;99.90
23540;DHT22;11947;50.810;4.394;2023-01-23T15:57:57;3.40;99.90
23540;DHT22;11947;50.810;4.394;2023-01-23T16:00:36;3.40;99.90
23540;DHT22;11947;50.810;4.394;2023-01-23T16:03:07;3.30;99.90
23540;DHT22;11947;50.810;4.394;2023-01-23T16:05:36;3.30;99.90
23540;DHT22;11947;50.810;4.394;2023-01-23T16:08:19;3.30;99.90
23540;DHT22;11947;50.810;4.394;2023-01-23T16:10:45;3.40;99.90
23540;DHT22;11947;50.810;4.394;2023-01-23T16:13:12;3.40;99.90
23540;DHT22;11947;50.810;4.394;2023-01-23T16:15:38;3.50;99.90
23540;DHT22;11947;50.810;4.394;2023-01-23T16:18:05;3.30;99.90
23540;DHT22;11947;50.810;4.394;2023-01-23T16:20:40;3.30;99.90
23540;DHT22;11947;50.810;4.394;2023-01-23T16:23:21;3.30;99.90
23540;DHT22;11947;50.810;4.394;2023-01-23T16:25:52;3.30;99.90
23540;DHT22;11947;50.810;4.394;2023-01-23T16:28:28;3.40;99.90
23540;DHT22;11947;50.810;4.394;2023-01-23T16:31:23;3.40;99.90
23540;DHT22;11947;50.810;4.394;2023-01-23T16:34:02;3.50;99.90
23540;DHT22;11947;50.810;4.394;2023-01-23T16:36:27;3.40;99.90
23540;DHT22;11947;50.810;4.394;2023-01-23T16:38:54;3.40;99.90
23540;DHT22;11947;50.810;4.394;2023-01-23T16:41:20;3.30;99.90
23540;DHT22;11947;50.810;4.394;2023-01-23T16:43:46;3.20;99.90
23540;DHT22;11947;50.810;4.394;2023-01-23T16:46:13;3.20;99.90
23540;DHT22;11947;50.810;4.394;2023-01-23T16:48:39;3.20;99.90
23540;DHT22;11947;50.810;4.394;2023-01-23T16:51:12;3.30;99.90
23540;DHT22;11947;50.810;4.394;2023-01-23T16:53:47;3.30;99.90
23540;DHT22;11947;50.810;4.394;2023-01-23T16:56:21;3.30;99.90
23540;DHT22;11947;50.810;4.394;2023-01-23T16:58:48;3.30;99.90
23540;DHT22;11947;50.810;4.394;2023-01-23T17:01:17;3.40;99.90
23540;DHT22;11947;50.810;4.394;2023-01-23T17:03:52;3.40;99.90
23540;DHT22;11947;50.810;4.394;2023-01-23T17:06:19;3.40;99.90
23540;DHT22;11947;50.810;4.394;2023-01-23T17:08:45;3.40;99.90
23540;DHT22;11947;50.810;4.394;2023-01-23T17:11:18;3.40;99.90
23540;DHT22;11947;50.810;4.394;2023-01-23T17:13:45;3.50;99.90
23540;DHT22;11947;50.810;4.394;2023-01-23T17:16:14;3.60;99.90
23540;DHT22;11947;50.810;4.394;2023-01-23T17:18:40;3.50;99.90
23540;DHT22;11947;50.810;4.394;2023-01-23T17:21:06;3.40;99.90
23540;DHT22;11947;50.810;4.394;2023-01-23T17:23:31;3.40;99.90
23540;DHT22;11947;50.810;4.394;2023-01-23T17:25:57;3.10;99.90
23540;DHT22;11947;50.810;4.394;2023-01-23T17:28:28;3.10;99.90
23540;DHT22;11947;50.810;4.394;2023-01-23T17:30:54;3.20;99.90
23540;DHT22;11947;50.810;4.394;2023-01-23T17:33:29;3.00;99.90
23540;DHT22;11947;50.810;4.394;2023-01-23T17:35:55;3.00;99.90
23540;DHT22;11947;50.810;4.394;2023-01-23T17:38:26;3.10;99.90
23540;DHT22;11947;50.810;4.394;2023-01-23T17:40:55;3.10;99.90
23540;DHT22;11947;50.810;4.394;2023-01-23T17:43:20;3.10;99.90
23540;DHT22;11947;50.810;4.394;2023-01-23T17:45:47;3.10;99.90
23540;DHT22;11947;50.810;4.394;2023-01-23T17:48:16;3.10;99.90
23540;DHT22;11947;50.810;4.394;2023-01-23T17:50:44;3.20;99.90